createdAt,value
2022-10-18T00:00:07.228Z,43.26
2022-10-18T00:00:38.612Z,43.49
2022-10-18T00:01:10.026Z,43.32
2022-10-18T00:01:41.472Z,43.28
2022-10-18T00:02:12.945Z,43.49
2022-10-18T00:02:44.400Z,43.07
2022-10-18T00:03:15.792Z,43.42
2022-10-18T00:03:47.183Z,43.37
2022-10-18T00:04:18.569Z,43.63
2022-10-18T00:04:49.968Z,43.59
2022-10-18T00:05:21.365Z,43.65
2022-10-18T00:05:52.771Z,43.15
2022-10-18T00:06:24.269Z,43.34
2022-10-18T00:06:55.664Z,43.90
2022-10-18T00:07:27.174Z,43.58
2022-10-18T00:07:58.663Z,43.36
2022-10-18T00:08:30.047Z,43.67
2022-10-18T00:09:01.436Z,43.51
2022-10-18T00:09:32.840Z,43.36
2022-10-18T00:10:04.226Z,43.17
2022-10-18T00:10:35.725Z,43.45
2022-10-18T00:11:07.118Z,43.52
2022-10-18T00:11:38.633Z,43.75
2022-10-18T00:12:10.031Z,43.58
2022-10-18T00:12:41.455Z,43.16
2022-10-18T00:13:12.864Z,43.21
2022-10-18T00:13:44.260Z,43.14
2022-10-18T00:14:15.654Z,43.67
2022-10-18T00:14:47.045Z,43.49
2022-10-18T00:15:18.427Z,43.13
2022-10-18T00:15:49.811Z,43.24
2022-10-18T00:16:21.202Z,43.33
2022-10-18T00:16:52.686Z,43.56
2022-10-18T00:17:24.098Z,43.93
2022-10-18T00:17:55.485Z,43.56
2022-10-18T00:18:26.882Z,43.40
2022-10-18T00:18:58.269Z,43.39
2022-10-18T00:19:29.685Z,43.43
2022-10-18T00:20:01.073Z,43.16
2022-10-18T00:20:32.465Z,43.23
2022-10-18T00:21:03.854Z,43.67
2022-10-18T00:21:35.278Z,43.39
2022-10-18T00:22:06.758Z,43.40
2022-10-18T00:22:38.156Z,43.49
2022-10-18T00:23:09.546Z,43.60
2022-10-18T00:23:40.927Z,43.46
2022-10-18T00:24:12.335Z,43.67
2022-10-18T00:24:43.749Z,43.22
2022-10-18T00:25:15.141Z,43.48
2022-10-18T00:25:46.534Z,43.50
2022-10-18T00:26:17.922Z,43.43
2022-10-18T00:26:49.311Z,43.49
2022-10-18T00:27:20.819Z,43.40
2022-10-18T00:27:52.223Z,43.45
2022-10-18T00:28:23.637Z,43.25
2022-10-18T00:28:55.181Z,43.79
2022-10-18T00:29:26.630Z,43.39
2022-10-18T00:29:58.012Z,43.62
2022-10-18T00:30:29.415Z,43.88
2022-10-18T00:31:00.800Z,43.75
2022-10-18T00:31:32.204Z,43.49
2022-10-18T00:32:03.613Z,43.70
2022-10-18T00:32:35.045Z,44.04
2022-10-18T00:33:06.447Z,43.33
2022-10-18T00:33:37.855Z,43.43
2022-10-18T00:34:09.232Z,43.39
2022-10-18T00:34:40.634Z,43.36
2022-10-18T00:35:12.308Z,43.37
2022-10-18T00:35:43.692Z,43.51
2022-10-18T00:36:15.080Z,43.15
2022-10-18T00:36:46.465Z,43.68
2022-10-18T00:37:17.854Z,43.57
2022-10-18T00:37:49.356Z,43.74
2022-10-18T00:38:20.742Z,43.65
2022-10-18T00:38:52.147Z,43.33
2022-10-18T00:39:23.550Z,43.67
2022-10-18T00:39:54.960Z,43.81
2022-10-18T00:40:26.368Z,43.32
2022-10-18T00:40:57.764Z,43.54
2022-10-18T00:41:29.156Z,43.76
2022-10-18T00:42:00.559Z,43.23
2022-10-18T00:42:32.198Z,43.57
2022-10-18T00:43:03.913Z,43.42
2022-10-18T00:43:35.296Z,43.69
2022-10-18T00:44:06.696Z,43.41
2022-10-18T00:44:38.093Z,43.51
2022-10-18T00:45:09.508Z,43.46
2022-10-18T00:45:40.906Z,43.27
2022-10-18T00:46:12.316Z,43.42
2022-10-18T00:46:43.704Z,43.78
2022-10-18T00:47:15.129Z,43.32
2022-10-18T00:47:46.517Z,43.20
2022-10-18T00:48:17.976Z,43.39
2022-10-18T00:48:49.399Z,43.38
2022-10-18T00:49:20.819Z,43.21
2022-10-18T00:49:52.207Z,43.28
2022-10-18T00:50:23.588Z,43.42
2022-10-18T00:50:54.996Z,43.26
2022-10-18T00:51:26.400Z,43.73
2022-10-18T00:51:57.805Z,43.88
2022-10-18T00:52:29.523Z,43.71
2022-10-18T00:53:01.224Z,43.46
2022-10-18T00:53:32.764Z,43.40
2022-10-18T00:54:04.149Z,43.31
2022-10-18T00:54:35.560Z,43.44
2022-10-18T00:55:06.943Z,43.25
2022-10-18T00:55:38.343Z,43.20
2022-10-18T00:56:09.733Z,43.45
2022-10-18T00:56:41.213Z,43.16
2022-10-18T00:57:12.602Z,43.40
2022-10-18T00:57:44.084Z,43.84
2022-10-18T00:58:15.513Z,43.44
2022-10-18T00:58:47.011Z,43.79
2022-10-18T00:59:18.404Z,43.57
2022-10-18T00:59:49.791Z,43.61
2022-10-18T01:00:21.192Z,43.87
2022-10-18T01:00:52.585Z,43.50
2022-10-18T01:01:27.479Z,43.63
2022-10-18T01:02:00.008Z,43.56
2022-10-18T01:02:31.699Z,43.52
2022-10-18T01:03:03.304Z,43.72
2022-10-18T01:03:34.689Z,43.50
2022-10-18T01:04:06.195Z,43.93
2022-10-18T01:04:37.579Z,43.26
2022-10-18T01:05:08.996Z,43.46
2022-10-18T01:05:40.408Z,43.47
2022-10-18T01:06:11.876Z,43.56
2022-10-18T01:06:43.340Z,43.72
2022-10-18T01:07:14.783Z,43.44
2022-10-18T01:07:46.184Z,43.32
2022-10-18T01:08:17.592Z,43.33
2022-10-18T01:08:48.984Z,43.65
2022-10-18T01:09:20.461Z,43.65
2022-10-18T01:09:51.848Z,43.36
2022-10-18T01:10:23.255Z,43.54
2022-10-18T01:10:54.650Z,43.74
2022-10-18T01:11:26.036Z,43.58
2022-10-18T01:11:57.434Z,43.66
2022-10-18T01:12:28.833Z,43.47
2022-10-18T01:13:00.241Z,43.62
2022-10-18T01:13:31.656Z,43.45
2022-10-18T01:14:03.045Z,43.55
2022-10-18T01:14:34.508Z,43.84
2022-10-18T01:15:05.900Z,43.63
2022-10-18T01:15:37.293Z,43.52
2022-10-18T01:16:08.682Z,43.82
2022-10-18T01:16:40.098Z,43.25
2022-10-18T01:17:11.516Z,43.69
2022-10-18T01:17:42.946Z,43.62
2022-10-18T01:18:14.334Z,43.63
2022-10-18T01:18:45.727Z,43.37
2022-10-18T01:19:17.107Z,43.50
2022-10-18T01:19:48.574Z,43.48
2022-10-18T01:20:19.981Z,43.77
2022-10-18T01:20:51.467Z,43.58
2022-10-18T01:21:22.881Z,43.56
2022-10-18T01:21:54.275Z,43.86
2022-10-18T01:22:25.665Z,43.88
2022-10-18T01:22:57.072Z,43.52
2022-10-18T01:23:28.461Z,43.57
2022-10-18T01:23:59.873Z,43.77
2022-10-18T01:24:31.262Z,43.79
2022-10-18T01:25:38.969Z,43.82
2022-10-18T01:26:10.352Z,43.77
2022-10-18T01:26:41.744Z,43.41
2022-10-18T01:27:13.124Z,43.79
2022-10-18T01:27:44.521Z,43.26
2022-10-18T01:28:15.937Z,43.89
2022-10-18T01:28:47.432Z,43.59
2022-10-18T01:29:18.880Z,43.94
2022-10-18T01:29:50.266Z,43.03
2022-10-18T01:30:21.716Z,43.94
2022-10-18T01:30:53.102Z,43.32
2022-10-18T01:31:24.494Z,43.65
2022-10-18T01:31:57.640Z,43.50
2022-10-18T01:32:30.893Z,43.53
2022-10-18T01:33:02.289Z,43.59
2022-10-18T01:33:33.690Z,43.40
2022-10-18T01:34:05.082Z,44.07
2022-10-18T01:34:36.474Z,43.50
2022-10-18T01:35:07.862Z,43.25
2022-10-18T01:35:39.371Z,43.57
2022-10-18T01:36:10.756Z,43.76
2022-10-18T01:36:42.149Z,43.44
2022-10-18T01:37:13.530Z,43.30
2022-10-18T01:37:44.941Z,43.52
2022-10-18T01:38:16.343Z,43.88
2022-10-18T01:38:47.734Z,43.65
2022-10-18T01:39:19.143Z,43.33
2022-10-18T01:39:50.543Z,43.90
2022-10-18T01:40:21.977Z,43.85
2022-10-18T01:40:53.359Z,43.20
2022-10-18T01:41:24.746Z,43.83
2022-10-18T01:41:56.145Z,43.26
2022-10-18T01:42:27.559Z,43.70
2022-10-18T01:42:58.971Z,43.76
2022-10-18T01:43:30.397Z,43.72
2022-10-18T01:44:01.795Z,43.35
2022-10-18T01:44:33.181Z,43.60
2022-10-18T01:45:04.641Z,43.80
2022-10-18T01:45:36.140Z,43.67
2022-10-18T01:46:07.532Z,43.54
2022-10-18T01:46:38.929Z,43.33
2022-10-18T01:47:10.320Z,43.73
2022-10-18T01:47:41.729Z,43.11
2022-10-18T01:48:13.124Z,43.71
2022-10-18T01:48:44.528Z,43.54
2022-10-18T01:49:15.932Z,43.83
2022-10-18T01:49:47.337Z,43.68
2022-10-18T01:50:18.740Z,43.62
2022-10-18T01:50:50.205Z,43.59
2022-10-18T01:51:21.593Z,43.33
2022-10-18T01:51:53.035Z,43.63
2022-10-18T01:52:24.499Z,43.79
2022-10-18T01:52:55.918Z,43.59
2022-10-18T01:53:27.311Z,43.88
2022-10-18T01:53:58.700Z,43.64
2022-10-18T01:54:30.093Z,43.65
2022-10-18T01:55:01.480Z,43.81
2022-10-18T01:55:32.887Z,43.60
2022-10-18T01:56:04.357Z,43.65
2022-10-18T01:56:35.741Z,43.44
2022-10-18T01:57:07.137Z,43.69
2022-10-18T01:57:38.757Z,43.68
2022-10-18T01:58:10.217Z,43.41
2022-10-18T01:58:41.648Z,43.97
2022-10-18T01:59:13.036Z,43.71
2022-10-18T01:59:44.433Z,43.93
2022-10-18T02:00:15.829Z,43.82
2022-10-18T02:00:47.229Z,43.34
2022-10-18T02:01:18.730Z,43.58
2022-10-18T02:01:50.140Z,43.46
2022-10-18T02:02:21.544Z,43.83
2022-10-18T02:02:52.928Z,43.39
2022-10-18T02:03:24.328Z,43.48
2022-10-18T02:03:55.741Z,43.61
2022-10-18T02:04:27.144Z,43.48
2022-10-18T02:04:58.557Z,43.69
2022-10-18T02:05:29.944Z,43.74
2022-10-18T02:06:01.324Z,43.51
2022-10-18T02:06:32.789Z,43.45
2022-10-18T02:07:04.197Z,43.52
2022-10-18T02:07:35.600Z,43.67
2022-10-18T02:08:18.933Z,43.98
2022-10-18T02:08:54.077Z,43.76
2022-10-18T02:09:25.470Z,43.36
2022-10-18T02:09:56.857Z,43.54
2022-10-18T02:10:28.247Z,43.63
2022-10-18T02:10:59.656Z,43.48
2022-10-18T02:11:31.039Z,43.77
2022-10-18T02:12:02.513Z,43.50
2022-10-18T02:12:34.130Z,43.45
2022-10-18T02:13:05.576Z,43.86
2022-10-18T02:13:36.964Z,43.93
2022-10-18T02:14:08.372Z,43.27
2022-10-18T02:14:39.755Z,43.63
2022-10-18T02:15:11.145Z,43.79
2022-10-18T02:15:42.548Z,43.77
2022-10-18T02:16:13.931Z,43.71
2022-10-18T02:16:45.444Z,43.65
2022-10-18T02:17:16.853Z,43.43
2022-10-18T02:17:48.255Z,43.64
2022-10-18T02:18:19.647Z,43.44
2022-10-18T02:18:51.035Z,43.94
2022-10-18T02:19:22.473Z,43.33
2022-10-18T02:19:53.935Z,43.94
2022-10-18T02:20:25.324Z,43.79
2022-10-18T02:20:56.724Z,43.72
2022-10-18T02:21:28.178Z,43.50
2022-10-18T02:21:59.610Z,43.99
2022-10-18T02:22:31.161Z,43.79
2022-10-18T02:23:02.795Z,43.87
2022-10-18T02:23:34.180Z,43.54
2022-10-18T02:24:05.592Z,43.46
2022-10-18T02:24:36.976Z,43.78
2022-10-18T02:25:08.363Z,43.85
2022-10-18T02:25:39.744Z,43.96
2022-10-18T02:26:11.163Z,43.76
2022-10-18T02:26:42.579Z,43.57
2022-10-18T02:27:14.008Z,43.68
2022-10-18T02:27:45.400Z,43.39
2022-10-18T02:28:16.826Z,43.44
2022-10-18T02:28:48.243Z,43.74
2022-10-18T02:29:19.635Z,43.63
2022-10-18T02:29:51.020Z,43.67
2022-10-18T02:30:22.411Z,43.97
2022-10-18T02:30:53.793Z,43.71
2022-10-18T02:31:25.214Z,43.69
2022-10-18T02:31:56.602Z,43.77
2022-10-18T02:32:28.126Z,43.46
2022-10-18T02:32:59.637Z,43.97
2022-10-18T02:33:31.025Z,43.66
2022-10-18T02:34:02.408Z,43.60
2022-10-18T02:34:33.798Z,43.94
2022-10-18T02:35:05.196Z,43.55
2022-10-18T02:35:36.575Z,43.66
2022-10-18T02:36:07.959Z,44.09
2022-10-18T02:36:39.364Z,43.35
2022-10-18T02:37:10.744Z,43.44
2022-10-18T02:37:42.158Z,44.04
2022-10-18T02:38:13.547Z,43.94
2022-10-18T02:38:44.947Z,43.97
2022-10-18T02:39:16.329Z,43.71
2022-10-18T02:39:47.722Z,43.87
2022-10-18T02:40:19.115Z,43.76
2022-10-18T02:40:50.500Z,43.79
2022-10-18T02:41:21.885Z,43.59
2022-10-18T02:41:53.293Z,43.89
2022-10-18T02:42:24.695Z,43.87
2022-10-18T02:42:56.118Z,43.97
2022-10-18T02:43:27.618Z,44.00
2022-10-18T02:43:58.999Z,43.65
2022-10-18T02:44:30.380Z,43.84
2022-10-18T02:45:01.792Z,43.54
2022-10-18T02:45:33.251Z,43.90
2022-10-18T02:46:04.644Z,44.09
2022-10-18T02:46:36.041Z,43.83
2022-10-18T02:47:07.428Z,43.79
2022-10-18T02:47:38.864Z,43.98
2022-10-18T02:48:10.248Z,43.54
2022-10-18T02:48:41.657Z,43.53
2022-10-18T02:49:13.054Z,43.85
2022-10-18T02:49:44.453Z,43.98
2022-10-18T02:50:15.864Z,43.69
2022-10-18T02:50:47.251Z,43.71
2022-10-18T02:51:18.656Z,43.56
2022-10-18T02:51:50.063Z,43.74
2022-10-18T02:52:21.449Z,43.48
2022-10-18T02:52:53.157Z,44.03
2022-10-18T02:53:24.540Z,43.82
2022-10-18T02:53:55.932Z,43.46
2022-10-18T02:54:27.313Z,43.80
2022-10-18T02:54:58.700Z,43.77
2022-10-18T02:55:30.115Z,43.66
2022-10-18T02:56:01.539Z,43.80
2022-10-18T02:56:32.924Z,43.88
2022-10-18T02:57:04.307Z,44.00
2022-10-18T02:57:35.704Z,43.27
2022-10-18T02:58:07.200Z,43.81
2022-10-18T02:58:38.598Z,44.01
2022-10-18T02:59:09.997Z,43.92
2022-10-18T02:59:41.380Z,44.10
2022-10-18T03:00:12.788Z,43.71
2022-10-18T03:00:44.177Z,43.59
2022-10-18T03:01:15.610Z,43.92
2022-10-18T03:01:47.148Z,43.80
2022-10-18T03:02:18.561Z,43.78
2022-10-18T03:02:50.015Z,43.86
2022-10-18T03:03:21.464Z,43.72
2022-10-18T03:03:52.858Z,43.40
2022-10-18T03:04:24.327Z,43.86
2022-10-18T03:04:55.767Z,43.81
2022-10-18T03:05:27.160Z,44.08
2022-10-18T03:05:58.549Z,43.67
2022-10-18T03:06:29.936Z,43.73
2022-10-18T03:07:01.352Z,43.48
2022-10-18T03:07:32.981Z,44.18
2022-10-18T03:08:04.544Z,44.11
2022-10-18T03:08:36.044Z,43.60
2022-10-18T03:09:07.436Z,43.59
2022-10-18T03:09:38.820Z,43.62
2022-10-18T03:10:10.235Z,43.55
2022-10-18T03:10:41.625Z,44.02
2022-10-18T03:11:13.006Z,43.76
2022-10-18T03:11:44.402Z,43.61
2022-10-18T03:12:15.800Z,43.74
2022-10-18T03:12:47.193Z,43.73
2022-10-18T03:13:18.754Z,44.09
2022-10-18T03:13:50.206Z,43.97
2022-10-18T03:14:21.611Z,43.67
2022-10-18T03:14:53.003Z,43.77
2022-10-18T03:15:24.383Z,43.69
2022-10-18T03:15:55.769Z,43.84
2022-10-18T03:16:27.176Z,43.53
2022-10-18T03:16:58.560Z,44.14
2022-10-18T03:17:30.287Z,43.69
2022-10-18T03:18:01.884Z,43.90
2022-10-18T03:18:33.288Z,44.30
2022-10-18T03:19:04.780Z,43.99
2022-10-18T03:19:36.175Z,43.48
2022-10-18T03:20:07.590Z,44.03
2022-10-18T03:20:38.999Z,44.04
2022-10-18T03:21:10.435Z,43.73
2022-10-18T03:21:41.821Z,44.08
2022-10-18T03:22:13.209Z,43.63
2022-10-18T03:22:44.602Z,43.84
2022-10-18T03:23:15.992Z,44.13
2022-10-18T03:23:47.411Z,44.02
2022-10-18T03:24:18.956Z,43.96
2022-10-18T03:24:50.343Z,44.06
2022-10-18T03:25:21.757Z,43.62
2022-10-18T03:25:53.148Z,44.05
2022-10-18T03:26:24.551Z,44.11
2022-10-18T03:26:55.964Z,43.87
2022-10-18T03:27:27.367Z,44.18
2022-10-18T03:27:58.767Z,43.95
2022-10-18T03:28:30.205Z,43.88
2022-10-18T03:29:01.677Z,43.84
2022-10-18T03:29:33.219Z,43.97
2022-10-18T03:30:04.604Z,43.90
2022-10-18T03:30:35.993Z,43.67
2022-10-18T03:31:07.404Z,43.83
2022-10-18T03:31:38.824Z,43.85
2022-10-18T03:32:10.208Z,43.94
2022-10-18T03:32:41.593Z,43.87
2022-10-18T03:33:12.976Z,44.38
2022-10-18T03:33:44.361Z,43.68
2022-10-18T03:34:15.758Z,44.13
2022-10-18T03:34:47.270Z,43.79
2022-10-18T03:35:18.656Z,44.16
2022-10-18T03:35:50.072Z,44.06
2022-10-18T03:36:21.464Z,44.19
2022-10-18T03:36:52.853Z,43.87
2022-10-18T03:37:24.240Z,43.88
2022-10-18T03:37:55.637Z,43.81
2022-10-18T03:38:27.025Z,44.21
2022-10-18T03:38:58.465Z,43.86
2022-10-18T03:39:29.864Z,43.87
2022-10-18T03:40:01.299Z,43.88
2022-10-18T03:40:32.696Z,43.79
2022-10-18T03:41:04.106Z,43.70
2022-10-18T03:41:35.489Z,43.61
2022-10-18T03:42:06.893Z,43.86
2022-10-18T03:42:38.305Z,43.93
2022-10-18T03:43:09.696Z,44.24
2022-10-18T03:43:41.097Z,44.09
2022-10-18T03:44:12.500Z,43.95
2022-10-18T03:44:43.968Z,43.99
2022-10-18T03:45:15.356Z,43.80
2022-10-18T03:45:46.765Z,43.69
2022-10-18T03:46:18.160Z,43.86
2022-10-18T03:46:49.544Z,44.01
2022-10-18T03:47:20.930Z,44.02
2022-10-18T03:47:52.310Z,43.79
2022-10-18T03:48:23.719Z,43.77
2022-10-18T03:48:55.100Z,43.69
2022-10-18T03:49:26.525Z,43.92
2022-10-18T03:49:58.025Z,43.65
2022-10-18T03:50:29.413Z,43.96
2022-10-18T03:51:00.820Z,43.74
2022-10-18T03:51:32.200Z,44.00
2022-10-18T03:52:03.583Z,44.12
2022-10-18T03:52:35.048Z,44.17
2022-10-18T03:53:06.480Z,44.18
2022-10-18T03:53:37.870Z,43.92
2022-10-18T03:54:09.253Z,44.00
2022-10-18T03:54:40.635Z,44.01
2022-10-18T03:55:12.064Z,43.94
2022-10-18T03:55:43.471Z,43.78
2022-10-18T03:56:14.856Z,44.04
2022-10-18T03:56:46.245Z,44.02
2022-10-18T03:57:17.633Z,44.11
2022-10-18T03:57:49.034Z,44.03
2022-10-18T03:58:20.501Z,43.88
2022-10-18T03:58:51.958Z,43.71
2022-10-18T03:59:23.351Z,43.83
2022-10-18T03:59:54.740Z,44.13
2022-10-18T04:00:26.231Z,43.75
2022-10-18T04:00:57.630Z,43.98
2022-10-18T04:01:29.064Z,43.89
2022-10-18T04:02:00.562Z,44.13
2022-10-18T04:02:32.400Z,44.12
2022-10-18T04:03:04.001Z,43.74
2022-10-18T04:03:35.384Z,44.25
2022-10-18T04:04:06.767Z,44.04
2022-10-18T04:04:38.164Z,43.99
2022-10-18T04:05:09.554Z,43.94
2022-10-18T04:05:41.021Z,43.82
2022-10-18T04:06:12.423Z,43.94
2022-10-18T04:06:43.802Z,44.13
2022-10-18T04:07:15.206Z,43.82
2022-10-18T04:07:46.620Z,43.70
2022-10-18T04:08:18.009Z,44.08
2022-10-18T04:08:49.401Z,43.87
2022-10-18T04:09:20.848Z,44.16
2022-10-18T04:09:52.231Z,43.51
2022-10-18T04:10:23.640Z,43.99
2022-10-18T04:10:55.185Z,43.72
2022-10-18T04:11:26.563Z,44.16
2022-10-18T04:11:57.950Z,44.02
2022-10-18T04:12:29.582Z,43.75
2022-10-18T04:13:01.202Z,44.28
2022-10-18T04:13:32.592Z,44.23
2022-10-18T04:14:03.983Z,44.19
2022-10-18T04:14:35.395Z,44.12
2022-10-18T04:15:06.785Z,44.32
2022-10-18T04:15:38.191Z,44.22
2022-10-18T04:16:09.654Z,43.81
2022-10-18T04:16:41.045Z,44.12
2022-10-18T04:17:12.435Z,43.65
2022-10-18T04:17:43.842Z,44.01
2022-10-18T04:18:15.245Z,43.91
2022-10-18T04:18:46.648Z,44.05
2022-10-18T04:19:18.050Z,44.01
2022-10-18T04:19:49.435Z,44.11
2022-10-18T04:20:20.820Z,44.09
2022-10-18T04:20:52.210Z,44.26
2022-10-18T04:21:23.716Z,44.19
2022-10-18T04:21:55.118Z,44.27
2022-10-18T04:22:26.511Z,43.93
2022-10-18T04:22:57.906Z,43.86
2022-10-18T04:23:29.299Z,43.76
2022-10-18T04:24:00.686Z,43.61
2022-10-18T04:24:32.071Z,43.88
2022-10-18T04:25:03.459Z,44.10
2022-10-18T04:25:34.892Z,44.07
2022-10-18T04:26:06.315Z,44.13
2022-10-18T04:26:37.757Z,44.03
2022-10-18T04:27:09.141Z,44.03
2022-10-18T04:27:40.534Z,43.92
2022-10-18T04:28:11.926Z,44.28
2022-10-18T04:28:43.383Z,44.22
2022-10-18T04:29:14.801Z,44.33
2022-10-18T04:29:46.203Z,44.08
2022-10-18T04:30:17.584Z,44.16
2022-10-18T04:30:48.970Z,44.04
2022-10-18T04:31:20.365Z,44.39
2022-10-18T04:31:51.812Z,44.22
2022-10-18T04:32:23.200Z,43.78
2022-10-18T04:32:54.594Z,44.17
2022-10-18T04:33:26.000Z,43.69
2022-10-18T04:33:57.388Z,43.90
2022-10-18T04:34:28.796Z,44.25
2022-10-18T04:35:00.191Z,44.42
2022-10-18T04:35:31.581Z,44.47
2022-10-18T04:36:02.997Z,44.18
2022-10-18T04:36:34.413Z,44.08
2022-10-18T04:37:05.891Z,44.29
2022-10-18T04:37:37.291Z,43.84
2022-10-18T04:38:08.692Z,44.10
2022-10-18T04:38:40.091Z,43.92
2022-10-18T04:39:11.513Z,44.05
2022-10-18T04:39:42.898Z,44.35
2022-10-18T04:40:14.286Z,44.48
2022-10-18T04:40:45.677Z,44.04
2022-10-18T04:41:17.078Z,43.77
2022-10-18T04:41:48.490Z,44.10
2022-10-18T04:42:19.948Z,43.93
2022-10-18T04:42:51.357Z,44.13
2022-10-18T04:43:22.748Z,44.37
2022-10-18T04:43:54.134Z,44.39
2022-10-18T04:44:25.537Z,43.97
2022-10-18T04:44:56.939Z,44.22
2022-10-18T04:45:28.323Z,43.90
2022-10-18T04:45:59.704Z,44.45
2022-10-18T04:46:31.089Z,43.98
2022-10-18T04:47:02.475Z,44.02
2022-10-18T04:47:34.215Z,44.19
2022-10-18T04:48:05.742Z,44.15
2022-10-18T04:48:37.137Z,44.22
2022-10-18T04:49:08.540Z,43.91
2022-10-18T04:49:39.925Z,43.97
2022-10-18T04:50:11.312Z,44.37
2022-10-18T04:50:42.736Z,44.46
2022-10-18T04:51:14.143Z,43.80
2022-10-18T04:51:45.547Z,44.08
2022-10-18T04:52:16.951Z,43.90
2022-10-18T04:53:24.767Z,44.11
2022-10-18T04:53:56.184Z,44.09
2022-10-18T04:54:28.678Z,44.24
2022-10-18T04:55:00.174Z,44.03
2022-10-18T04:55:31.561Z,44.00
2022-10-18T04:56:02.955Z,44.31
2022-10-18T04:56:34.338Z,43.81
2022-10-18T04:57:05.763Z,44.04
2022-10-18T04:57:37.147Z,43.80
2022-10-18T04:58:08.670Z,44.23
2022-10-18T04:58:40.065Z,44.31
2022-10-18T04:59:11.449Z,44.63
2022-10-18T04:59:42.841Z,44.19
2022-10-18T05:00:14.229Z,44.18
2022-10-18T05:00:45.608Z,44.23
2022-10-18T05:01:17.052Z,44.18
2022-10-18T05:01:48.551Z,44.29
2022-10-18T05:02:20.043Z,44.17
2022-10-18T05:02:51.429Z,44.46
2022-10-18T05:03:22.937Z,44.50
2022-10-18T05:03:54.337Z,44.18
2022-10-18T05:04:25.724Z,44.23
2022-10-18T05:04:57.128Z,44.10
2022-10-18T05:05:49.653Z,44.46
2022-10-18T05:06:19.879Z,44.25
2022-10-18T05:06:51.266Z,44.46
2022-10-18T05:07:22.683Z,44.22
2022-10-18T05:07:54.069Z,44.09
2022-10-18T05:08:25.630Z,44.45
2022-10-18T05:08:57.041Z,44.11
2022-10-18T05:09:28.432Z,44.02
2022-10-18T05:09:59.845Z,44.04
2022-10-18T05:10:31.235Z,43.98
2022-10-18T05:11:02.671Z,44.42
2022-10-18T05:11:34.117Z,44.05
2022-10-18T05:12:05.689Z,44.06
2022-10-18T05:12:37.077Z,44.42
2022-10-18T05:13:08.473Z,44.26
2022-10-18T05:13:40.306Z,44.21
2022-10-18T05:14:11.692Z,44.48
2022-10-18T05:14:43.080Z,44.21
2022-10-18T05:15:14.479Z,44.13
2022-10-18T05:15:45.866Z,44.28
2022-10-18T05:16:17.277Z,44.56
2022-10-18T05:16:48.665Z,44.26
2022-10-18T05:17:20.055Z,44.30
2022-10-18T05:17:51.439Z,44.58
2022-10-18T05:18:22.830Z,43.96
2022-10-18T05:18:54.364Z,44.47
2022-10-18T05:19:25.754Z,44.31
2022-10-18T05:19:57.144Z,44.44
2022-10-18T05:20:28.542Z,44.08
2022-10-18T05:20:59.928Z,44.05
2022-10-18T05:21:31.343Z,44.09
2022-10-18T05:22:02.750Z,44.36
2022-10-18T05:22:34.350Z,44.34
2022-10-18T05:23:05.866Z,44.40
2022-10-18T05:23:37.248Z,44.33
2022-10-18T05:24:08.728Z,44.12
2022-10-18T05:24:40.128Z,44.14
2022-10-18T05:25:11.519Z,44.26
2022-10-18T05:25:42.909Z,44.37
2022-10-18T05:26:14.297Z,44.20
2022-10-18T05:26:45.710Z,44.33
2022-10-18T05:27:17.112Z,44.39
2022-10-18T05:27:48.492Z,44.54
2022-10-18T05:28:39.703Z,44.69
2022-10-18T05:29:11.444Z,44.22
2022-10-18T05:29:42.900Z,43.84
2022-10-18T05:30:14.289Z,44.10
2022-10-18T05:30:45.683Z,44.34
2022-10-18T05:31:17.063Z,44.29
2022-10-18T05:31:48.456Z,44.40
2022-10-18T05:32:19.845Z,44.62
2022-10-18T05:32:51.490Z,44.61
2022-10-18T05:33:23.009Z,44.73
2022-10-18T05:33:54.413Z,44.35
2022-10-18T05:34:25.849Z,44.14
2022-10-18T05:34:57.245Z,44.65
2022-10-18T05:35:28.632Z,44.40
2022-10-18T05:36:00.022Z,44.37
2022-10-18T05:36:31.408Z,43.96
2022-10-18T05:37:02.793Z,44.69
2022-10-18T05:37:34.195Z,44.81
2022-10-18T05:38:05.584Z,44.63
2022-10-18T05:39:13.279Z,44.21
2022-10-18T05:39:44.772Z,44.46
2022-10-18T05:40:16.155Z,44.39
2022-10-18T05:40:47.559Z,44.41
2022-10-18T05:41:18.945Z,44.39
2022-10-18T05:41:50.340Z,44.41
2022-10-18T05:42:21.749Z,44.57
2022-10-18T05:42:53.136Z,44.39
2022-10-18T05:43:24.520Z,44.64
2022-10-18T05:43:55.908Z,44.98
2022-10-18T05:44:27.304Z,44.19
2022-10-18T05:44:58.823Z,44.29
2022-10-18T05:45:30.209Z,44.66
2022-10-18T05:46:01.601Z,44.24
2022-10-18T05:46:32.988Z,44.59
2022-10-18T05:47:04.396Z,44.08
2022-10-18T05:48:12.056Z,44.67
2022-10-18T05:48:43.448Z,44.46
2022-10-18T05:49:14.837Z,44.26
2022-10-18T05:49:46.247Z,44.65
2022-10-18T05:50:17.737Z,44.63
2022-10-18T05:50:49.138Z,44.79
2022-10-18T05:51:20.537Z,44.18
2022-10-18T05:51:51.926Z,44.57
2022-10-18T05:52:23.340Z,44.42
2022-10-18T05:52:56.964Z,44.53
2022-10-18T05:53:36.636Z,44.24
2022-10-18T05:54:09.081Z,44.80
2022-10-18T05:54:40.475Z,44.57
2022-10-18T05:55:11.882Z,44.25
2022-10-18T05:55:43.324Z,44.48
2022-10-18T05:56:14.719Z,44.57
2022-10-18T05:56:46.138Z,44.79
2022-10-18T05:57:17.535Z,44.21
2022-10-18T05:57:48.930Z,44.45
2022-10-18T05:58:20.319Z,44.26
2022-10-18T05:58:51.727Z,44.27
2022-10-18T05:59:23.113Z,44.48
2022-10-18T05:59:54.511Z,44.40
2022-10-18T06:00:25.896Z,44.88
2022-10-18T06:00:57.333Z,44.90
2022-10-18T06:01:34.465Z,44.53
2022-10-18T06:02:06.232Z,44.88
2022-10-18T06:02:37.758Z,44.93
2022-10-18T06:03:09.886Z,44.61
2022-10-18T06:03:43.448Z,44.80
2022-10-18T06:04:16.120Z,44.90
2022-10-18T06:04:48.802Z,44.58
2022-10-18T06:05:20.890Z,44.42
2022-10-18T06:05:54.594Z,44.77
2022-10-18T06:06:26.163Z,44.74
2022-10-18T06:06:57.597Z,44.65
2022-10-18T06:07:29.247Z,44.74
2022-10-18T06:08:00.944Z,44.75
2022-10-18T06:08:32.463Z,44.66
2022-10-18T06:09:07.200Z,44.67
2022-10-18T06:09:38.617Z,44.49
2022-10-18T06:10:10.038Z,44.65
2022-10-18T06:10:41.436Z,44.74
2022-10-18T06:11:12.914Z,44.40
2022-10-18T06:11:44.471Z,44.96
2022-10-18T06:12:15.894Z,44.83
2022-10-18T06:12:47.645Z,44.92
2022-10-18T06:13:19.192Z,44.65
2022-10-18T06:13:52.527Z,44.80
2022-10-18T06:14:23.915Z,45.01
2022-10-18T06:14:55.388Z,44.69
2022-10-18T06:15:26.774Z,44.88
2022-10-18T06:15:58.188Z,44.95
2022-10-18T06:16:32.410Z,45.13
2022-10-18T06:17:04.218Z,44.66
2022-10-18T06:17:35.835Z,44.75
2022-10-18T06:18:07.356Z,44.50
2022-10-18T06:18:38.755Z,45.23
2022-10-18T06:19:10.260Z,44.70
2022-10-18T06:19:41.651Z,45.13
2022-10-18T06:20:13.398Z,44.56
2022-10-18T06:20:45.258Z,44.96
2022-10-18T06:21:16.844Z,45.06
2022-10-18T06:21:50.346Z,44.76
2022-10-18T06:22:21.845Z,44.79
2022-10-18T06:22:53.525Z,44.66
2022-10-18T06:23:25.086Z,44.92
2022-10-18T06:23:56.725Z,45.16
2022-10-18T06:24:28.264Z,44.79
2022-10-18T06:24:59.697Z,44.82
2022-10-18T06:25:31.254Z,44.97
2022-10-18T06:26:02.663Z,44.80
2022-10-18T06:26:35.218Z,44.75
2022-10-18T06:27:06.817Z,44.66
2022-10-18T06:27:38.667Z,44.88
2022-10-18T06:28:12.216Z,44.51
2022-10-18T06:28:43.998Z,44.52
2022-10-18T06:29:15.562Z,44.92
2022-10-18T06:29:47.194Z,44.96
2022-10-18T06:30:18.791Z,44.79
2022-10-18T06:30:50.211Z,44.78
2022-10-18T06:31:21.658Z,45.08
2022-10-18T06:31:53.144Z,44.98
2022-10-18T06:32:24.691Z,45.49
2022-10-18T06:32:56.131Z,45.29
2022-10-18T06:33:27.573Z,45.55
2022-10-18T06:33:59.077Z,44.83
2022-10-18T06:34:30.578Z,45.43
2022-10-18T06:35:01.995Z,45.14
2022-10-18T06:35:33.477Z,45.60
2022-10-18T06:36:05.698Z,45.37
2022-10-18T06:36:37.363Z,45.78
2022-10-18T06:37:08.893Z,45.34
2022-10-18T06:37:40.387Z,45.02
2022-10-18T06:38:11.856Z,45.00
2022-10-18T06:38:43.545Z,45.52
2022-10-18T06:39:15.130Z,45.04
2022-10-18T06:39:46.666Z,45.62
2022-10-18T06:40:18.140Z,45.63
2022-10-18T06:40:49.910Z,45.43
2022-10-18T06:41:21.468Z,45.60
2022-10-18T06:41:53.070Z,45.57
2022-10-18T06:42:24.522Z,45.51
2022-10-18T06:43:05.848Z,45.15
2022-10-18T06:43:42.187Z,45.19
2022-10-18T06:44:13.597Z,45.43
2022-10-18T06:44:44.992Z,45.35
2022-10-18T06:45:16.498Z,45.58
2022-10-18T06:45:47.910Z,45.40
2022-10-18T06:46:19.325Z,45.99
2022-10-18T06:46:50.743Z,45.67
2022-10-18T06:47:22.425Z,45.65
2022-10-18T06:47:53.914Z,45.35
2022-10-18T06:48:25.312Z,45.35
2022-10-18T06:48:56.715Z,45.00